Time;durP1;ratioP1;P1;durP2;ratioP2;P2;SDS_P1;SDS_P2;PMS_P1;PMS_P2;Temp;Humidity;BMP_temperature;BMP_pressure;BME280_temperature;BME280_humidity;BME280_pressure;Samples;Min_cycle;Max_cycle;Signal;HPM_P1;HPM_P2
2022/11/15 00:00:51;;;;;;;7.00;5.63;;;8.50;99.90;;;;;;4960696;28;20448;-64
2022/11/15 00:03:19;;;;;;;8.43;5.50;;;8.50;99.90;;;;;;4959127;28;20530;-64
2022/11/15 00:05:45;;;;;;;6.80;5.23;;;8.50;99.90;;;;;;4962184;28;20563;-64
2022/11/15 00:08:11;;;;;;;5.20;4.70;;;8.50;99.90;;;;;;4964576;28;20546;-64
2022/11/15 00:10:37;;;;;;;5.17;3.73;;;8.50;99.90;;;;;;4959442;28;20865;-64
2022/11/15 00:13:21;;;;;;;4.17;3.87;;;8.50;99.90;;;;;;4967826;28;20194;-64
2022/11/15 00:15:46;;;;;;;4.50;3.63;;;8.40;99.90;;;;;;4959869;28;20189;-64
2022/11/15 00:18:13;;;;;;;4.27;3.40;;;8.40;99.90;;;;;;4967539;28;20525;-64
2022/11/15 00:20:39;;;;;;;4.20;3.77;;;8.40;99.90;;;;;;4966570;28;20200;-64
2022/11/15 00:23:05;;;;;;;4.77;3.97;;;8.40;99.90;;;;;;4962856;28;20510;-64
2022/11/15 00:25:31;;;;;;;4.07;3.47;;;8.50;99.90;;;;;;4965474;28;20266;-64
2022/11/15 00:27:59;;;;;;;4.47;3.93;;;8.50;99.90;;;;;;4960963;28;20481;-64
2022/11/15 00:30:25;;;;;;;4.47;3.63;;;8.50;99.90;;;;;;4954998;28;20476;-64
2022/11/15 00:32:50;;;;;;;4.93;3.70;;;8.60;99.90;;;;;;4952178;28;20472;-64
2022/11/15 00:35:16;;;;;;;5.50;4.00;;;8.60;99.90;;;;;;4958628;28;20467;-64
2022/11/15 00:37:42;;;;;;;5.80;3.90;;;8.70;99.90;;;;;;4965430;28;20212;-64
2022/11/15 00:40:08;;;;;;;6.23;4.13;;;8.70;99.90;;;;;;4961357;28;20185;-64
2022/11/15 00:42:34;;;;;;;5.17;4.00;;;8.70;99.90;;;;;;4963179;28;20192;-64
2022/11/15 00:44:59;;;;;;;4.63;3.63;;;8.70;99.90;;;;;;4963712;28;20478;-64
2022/11/15 00:47:25;;;;;;;4.27;3.67;;;8.60;99.90;;;;;;4961929;28;20215;-64
2022/11/15 00:49:50;;;;;;;5.50;4.43;;;8.50;99.90;;;;;;4958929;28;20184;-64
2022/11/15 00:52:16;;;;;;;6.20;3.60;;;8.50;99.90;;;;;;4957096;28;20176;-64
2022/11/15 00:54:41;;;;;;;3.60;3.30;;;8.50;99.90;;;;;;4953366;28;20247;-64
2022/11/15 00:57:07;;;;;;;4.03;3.50;;;8.40;99.90;;;;;;4964029;28;20275;-65
2022/11/15 00:59:32;;;;;;;5.47;4.20;;;8.40;99.90;;;;;;4961516;28;20197;-64
2022/11/15 01:01:58;;;;;;;3.93;3.67;;;8.40;99.90;;;;;;4963570;28;20181;-64
2022/11/15 01:04:23;;;;;;;4.50;4.10;;;8.40;99.90;;;;;;4958048;28;20212;-64
2022/11/15 01:06:49;;;;;;;4.40;4.00;;;8.40;99.90;;;;;;4955220;28;20255;-64
2022/11/15 01:09:14;;;;;;;5.67;4.90;;;8.40;99.90;;;;;;4961878;28;20191;-64
2022/11/15 01:11:40;;;;;;;4.73;4.30;;;8.40;99.90;;;;;;4963249;28;20538;-64
2022/11/15 01:14:06;;;;;;;5.40;4.90;;;8.40;99.90;;;;;;4950923;28;20219;-64
2022/11/15 01:16:33;;;;;;;5.17;4.67;;;8.30;99.90;;;;;;4971548;28;20449;-64
2022/11/15 01:18:58;;;;;;;5.30;4.80;;;8.30;99.90;;;;;;4972505;28;20184;-64
2022/11/15 01:21:24;;;;;;;5.90;4.20;;;8.30;99.90;;;;;;4969013;28;20454;-64
2022/11/15 01:23:53;;;;;;;4.07;3.77;;;8.20;99.90;;;;;;4964921;28;20303;-64
2022/11/15 01:26:19;;;;;;;5.23;4.43;;;8.20;99.90;;;;;;4971327;28;20255;-64
2022/11/15 01:28:44;;;;;;;4.73;4.10;;;8.10;99.90;;;;;;4963677;28;20587;-64
2022/11/15 01:31:16;;;;;;;4.57;4.20;;;8.10;99.90;;;;;;4966663;28;20246;-64
2022/11/15 01:33:41;;;;;;;5.13;4.10;;;8.10;99.90;;;;;;4958685;28;20188;-64
2022/11/15 01:36:19;;;;;;;3.97;3.67;;;8.10;99.90;;;;;;4962702;28;20466;-64
2022/11/15 01:38:45;;;;;;;4.50;4.10;;;8.10;99.90;;;;;;4969399;28;20255;-64
2022/11/15 01:41:19;;;;;;;6.50;4.70;;;8.00;99.90;;;;;;4965617;28;20431;-64
2022/11/15 01:43:48;;;;;;;3.83;3.53;;;8.10;99.90;;;;;;4964318;28;20195;-64
2022/11/15 01:46:33;;;;;;;4.60;4.03;;;8.10;99.90;;;;;;4971479;28;20877;-64
2022/11/15 01:49:04;;;;;;;3.93;3.63;;;8.00;99.90;;;;;;4971629;28;20535;-64
2022/11/15 01:51:32;;;;;;;4.50;3.80;;;8.00;99.90;;;;;;4961196;28;20450;-64
2022/11/15 01:54:05;;;;;;;7.10;3.57;;;8.00;99.90;;;;;;4963691;28;20466;-64
2022/11/15 01:56:35;;;;;;;4.30;3.90;;;8.10;99.90;;;;;;4964039;28;20805;-64
2022/11/15 01:59:04;;;;;;;3.67;3.37;;;8.10;99.90;;;;;;4966359;28;20439;-65
2022/11/15 02:01:31;;;;;;;7.17;3.97;;;8.00;99.90;;;;;;4968450;28;20452;-64
2022/11/15 02:04:02;;;;;;;5.33;3.97;;;8.00;99.90;;;;;;4970826;28;20518;-64
2022/11/15 02:06:27;;;;;;;4.00;3.60;;;8.00;99.90;;;;;;4970013;28;20462;-64
2022/11/15 02:08:54;;;;;;;3.87;3.50;;;8.00;99.90;;;;;;4966986;28;20929;-64
2022/11/15 02:11:19;;;;;;;6.00;3.90;;;8.00;99.90;;;;;;4963586;28;20188;-64
2022/11/15 02:13:45;;;;;;;3.97;3.30;;;7.90;99.90;;;;;;4961217;28;20437;-64
2022/11/15 02:16:37;;;;;;;4.60;3.90;;;7.90;99.90;;;;;;4968670;28;20188;-64
2022/11/15 02:19:21;;;;;;;4.40;4.00;;;7.90;99.90;;;;;;4948214;28;20955;-64
2022/11/15 02:22:14;;;;;;;4.30;3.37;;;7.90;99.90;;;;;;4965690;28;20436;-64
2022/11/15 02:24:57;;;;;;;3.63;3.33;;;7.90;99.90;;;;;;4955307;28;20555;-64
2022/11/15 02:28:05;;;;;;;3.27;3.00;;;7.80;99.90;;;;;;4963156;28;20487;-64
2022/11/15 02:30:49;;;;;;;3.77;3.37;;;7.80;99.90;;;;;;4964831;28;20971;-64
2022/11/15 02:33:37;;;;;;;4.43;3.33;;;7.80;99.90;;;;;;4953507;28;20495;-64
2022/11/15 02:36:27;;;;;;;4.80;2.97;;;7.80;99.90;;;;;;4952910;28;20598;-64
2022/11/15 02:39:07;;;;;;;4.23;3.83;;;7.80;99.90;;;;;;4959720;28;20468;-64
2022/11/15 02:41:45;;;;;;;3.37;3.07;;;7.80;99.90;;;;;;4962135;28;20436;-64
2022/11/15 02:44:21;;;;;;;4.70;3.37;;;7.90;99.90;;;;;;4958380;28;21062;-64
2022/11/15 02:49:33;;;;;;;4.50;4.10;;;8.00;99.90;;;;;;4957060;28;20448;-64
2022/11/15 02:51:59;;;;;;;3.93;3.60;;;8.10;99.90;;;;;;4963819;28;20439;-64
2022/11/15 02:54:29;;;;;;;3.47;3.20;;;8.10;99.90;;;;;;4957764;28;20450;-64
2022/11/15 02:57:03;;;;;;;4.83;4.13;;;8.10;99.90;;;;;;4956891;28;20219;-64
2022/11/15 02:59:41;;;;;;;3.90;3.53;;;8.00;99.90;;;;;;4957819;28;20957;-64
2022/11/15 03:02:39;;;;;;;3.97;3.67;;;7.90;99.90;;;;;;4946228;28;20440;-64
2022/11/15 03:05:19;;;;;;;3.63;3.33;;;7.80;99.90;;;;;;4954357;28;20484;-64
2022/11/15 03:08:12;;;;;;;4.90;3.30;;;7.80;99.90;;;;;;4957217;28;21039;-64
2022/11/15 03:11:07;;;;;;;4.27;3.43;;;7.80;99.90;;;;;;4964471;28;20490;-64
2022/11/15 03:13:59;;;;;;;3.50;3.20;;;7.80;99.90;;;;;;4959892;28;20795;-64
2022/11/15 03:16:31;;;;;;;2.93;2.63;;;7.80;99.90;;;;;;4961756;28;20507;-64
2022/11/15 03:19:13;;;;;;;8.50;3.50;;;7.70;99.90;;;;;;4963765;28;20807;-64
2022/11/15 03:21:40;;;;;;;4.00;3.63;;;7.80;99.90;;;;;;4963353;28;20479;-64
2022/11/15 03:24:07;;;;;;;4.13;3.40;;;7.80;99.90;;;;;;4952369;28;20609;-64
2022/11/15 03:26:36;;;;;;;7.53;4.40;;;7.70;99.90;;;;;;4961957;28;20472;-64
2022/11/15 03:29:12;;;;;;;5.80;3.33;;;7.80;99.90;;;;;;4955269;28;20444;-64
2022/11/15 03:31:48;;;;;;;6.90;3.90;;;7.80;99.90;;;;;;4960613;28;20608;-64
2022/11/15 03:34:42;;;;;;;4.07;3.77;;;7.80;99.90;;;;;;4962728;28;20849;-64
2022/11/15 03:37:11;;;;;;;7.23;4.40;;;7.80;99.90;;;;;;4961269;28;20575;-64
2022/11/15 03:39:37;;;;;;;4.97;4.47;;;7.90;99.90;;;;;;4963426;28;20444;-64
2022/11/15 03:42:17;;;;;;;7.83;4.03;;;7.90;99.90;;;;;;4955177;28;20455;-64
2022/11/15 03:44:48;;;;;;;5.23;3.77;;;7.90;99.90;;;;;;4958599;28;20351;-64
2022/11/15 03:47:41;;;;;;;4.37;3.97;;;7.90;99.90;;;;;;4955122;28;20467;-64
2022/11/15 03:50:14;;;;;;;7.13;3.97;;;7.90;99.90;;;;;;4959402;28;20818;-64
2022/11/15 03:52:42;;;;;;;4.20;3.80;;;7.90;99.90;;;;;;4954312;28;20811;-64
2022/11/15 03:55:11;;;;;;;5.87;3.40;;;7.90;99.90;;;;;;4960964;28;20448;-64
2022/11/15 03:57:36;;;;;;;5.47;4.10;;;7.80;99.90;;;;;;4953203;28;20468;-64
2022/11/15 04:00:04;;;;;;;4.77;4.37;;;7.90;99.90;;;;;;4965553;28;20443;-64
2022/11/15 04:02:29;;;;;;;4.30;3.77;;;7.80;99.90;;;;;;4956272;28;20192;-64
2022/11/15 04:04:55;;;;;;;4.07;3.70;;;7.80;99.90;;;;;;4955583;28;20830;-64
2022/11/15 04:07:20;;;;;;;4.97;3.50;;;7.90;99.90;;;;;;4952059;28;20201;-64
2022/11/15 04:10:01;;;;;;;5.23;3.40;;;7.90;99.90;;;;;;4958398;28;20189;-64
2022/11/15 04:12:30;;;;;;;4.17;3.50;;;7.80;99.90;;;;;;4962857;28;20192;-64
2022/11/15 04:15:07;;;;;;;6.17;3.80;;;7.80;99.90;;;;;;4963268;28;20768;-64
2022/11/15 04:17:44;;;;;;;5.63;3.83;;;7.80;99.90;;;;;;4954551;28;20506;-64
2022/11/15 04:26:07;;;;;;;4.00;3.60;;;7.80;99.90;;;;;;4956688;28;20474;-64
2022/11/15 04:28:32;;;;;;;3.43;2.73;;;7.80;99.90;;;;;;4989283;23;20505;-64
2022/11/15 04:30:58;;;;;;;3.80;3.50;;;7.70;99.90;;;;;;4987223;28;20443;-65
2022/11/15 04:33:23;;;;;;;4.37;3.90;;;7.70;99.90;;;;;;4979643;28;20192;-64
2022/11/15 04:38:35;;;;;;;3.50;3.00;;;7.70;99.90;;;;;;4970476;28;20211;-66
2022/11/15 04:41:01;;;;;;;4.37;3.37;;;7.70;99.90;;;;;;4974313;28;20526;-66
2022/11/15 04:43:28;;;;;;;5.80;4.73;;;7.70;99.90;;;;;;4972642;28;20531;-64
2022/11/15 04:45:53;;;;;;;4.47;4.00;;;7.70;99.90;;;;;;4974358;28;20216;-63
2022/11/15 04:48:19;;;;;;;5.03;3.43;;;7.70;99.90;;;;;;4976328;28;20474;-66
2022/11/15 04:50:44;;;;;;;5.10;3.40;;;7.70;99.90;;;;;;4973333;28;20214;-66
2022/11/15 04:53:10;;;;;;;6.30;3.30;;;7.70;99.90;;;;;;4976058;28;20199;-63
2022/11/15 04:55:35;;;;;;;3.63;2.93;;;7.60;99.90;;;;;;4976427;28;20188;-66
2022/11/15 04:58:01;;;;;;;3.97;3.67;;;7.60;99.90;;;;;;4980989;28;20203;-66
2022/11/15 05:00:28;;;;;;;4.50;3.10;;;7.70;99.90;;;;;;4982249;28;20172;-66
2022/11/15 05:05:38;;;;;;;3.93;3.20;;;7.70;99.90;;;;;;4976678;28;20533;-64
2022/11/15 05:08:04;;;;;;;3.50;3.20;;;7.70;99.90;;;;;;4984580;28;20459;-63
2022/11/15 05:10:29;;;;;;;4.50;3.70;;;7.80;99.90;;;;;;4983612;28;20649;-66
2022/11/15 05:12:55;;;;;;;4.60;2.70;;;7.80;99.90;;;;;;4985465;28;20209;-66
2022/11/15 05:15:20;;;;;;;3.80;3.50;;;7.70;99.90;;;;;;4979838;28;20188;-66
2022/11/15 05:17:46;;;;;;;3.77;3.47;;;7.70;99.90;;;;;;4983653;28;20253;-66
2022/11/15 05:20:12;;;;;;;3.57;3.27;;;7.70;99.90;;;;;;4982000;28;20616;-66
2022/11/15 05:22:37;;;;;;;4.60;3.30;;;7.60;99.90;;;;;;4985545;28;20179;-65
2022/11/15 05:25:03;;;;;;;4.80;4.40;;;7.50;99.90;;;;;;4981623;28;20840;-66
2022/11/15 05:27:29;;;;;;;4.20;3.80;;;7.50;99.90;;;;;;4979319;28;20208;-66
2022/11/15 05:29:55;;;;;;;6.07;4.27;;;7.50;99.90;;;;;;4981852;28;22143;-66
2022/11/15 05:32:20;;;;;;;4.07;3.63;;;7.60;99.90;;;;;;4972255;28;20184;-65
2022/11/15 05:34:46;;;;;;;5.17;3.60;;;7.60;99.90;;;;;;4976988;28;20183;-65
2022/11/15 05:37:13;;;;;;;4.00;3.50;;;7.60;99.90;;;;;;4982905;28;20210;-65
2022/11/15 05:39:38;;;;;;;3.80;3.50;;;7.70;99.90;;;;;;4981736;28;20188;-65
2022/11/15 05:42:13;;;;;;;4.00;3.40;;;7.70;99.90;;;;;;4980217;28;20780;-65
2022/11/15 05:44:42;;;;;;;4.10;3.60;;;7.70;99.90;;;;;;4972678;28;20606;-66
2022/11/15 05:47:12;;;;;;;5.37;4.87;;;7.70;99.90;;;;;;4968414;28;20463;-66
2022/11/15 05:49:40;;;;;;;6.90;4.37;;;7.70;99.90;;;;;;4983069;28;20431;-65
2022/11/15 05:52:10;;;;;;;7.70;5.47;;;7.80;99.90;;;;;;4972488;28;20434;-66
2022/11/15 05:54:36;;;;;;;4.67;3.53;;;7.80;99.90;;;;;;4985015;28;20962;-66
2022/11/15 05:57:02;;;;;;;8.43;5.00;;;7.80;99.90;;;;;;4984071;28;20431;-64
2022/11/15 05:59:32;;;;;;;7.80;4.97;;;7.80;99.90;;;;;;4982409;28;20855;-65
2022/11/15 06:01:58;;;;;;;8.03;5.00;;;7.90;99.90;;;;;;4977821;28;20203;-65
2022/11/15 06:04:23;;;;;;;4.97;4.40;;;7.90;99.90;;;;;;4972687;28;20463;-65
2022/11/15 06:06:49;;;;;;;5.07;4.23;;;7.90;99.90;;;;;;4985004;28;20188;-65
2022/11/15 06:09:14;;;;;;;5.67;3.90;;;7.90;99.90;;;;;;4983458;28;20730;-65
2022/11/15 06:11:40;;;;;;;4.73;4.00;;;7.80;99.90;;;;;;4980249;28;20597;-65
2022/11/15 06:14:05;;;;;;;6.50;5.27;;;7.80;99.90;;;;;;4981383;28;20187;-68
2022/11/15 06:16:31;;;;;;;5.70;4.10;;;7.70;99.90;;;;;;4983250;28;20199;-69
2022/11/15 06:18:57;;;;;;;4.60;3.93;;;7.70;99.90;;;;;;4980263;28;20278;-67
2022/11/15 06:21:22;;;;;;;5.33;4.83;;;7.60;99.90;;;;;;4981637;28;20661;-65
2022/11/15 06:23:48;;;;;;;6.03;4.97;;;7.60;99.90;;;;;;4973277;28;20280;-64
2022/11/15 06:26:13;;;;;;;5.30;4.70;;;7.60;99.90;;;;;;4974360;28;20184;-66
2022/11/15 06:28:39;;;;;;;10.17;5.20;;;7.60;99.90;;;;;;4981449;28;20208;-64
2022/11/15 06:31:10;;;;;;;9.63;4.87;;;7.60;99.90;;;;;;4981081;28;20184;-64
2022/11/15 06:33:37;;;;;;;7.50;5.17;;;7.60;99.90;;;;;;4972731;28;20664;-65
2022/11/15 06:36:08;;;;;;;12.93;5.27;;;7.60;99.90;;;;;;4991030;28;20441;-65
2022/11/15 06:38:34;;;;;;;6.30;5.60;;;7.60;99.90;;;;;;4977914;28;20455;-65
2022/11/15 06:41:05;;;;;;;9.03;6.50;;;7.60;99.90;;;;;;4974780;28;20423;-65
2022/11/15 06:43:32;;;;;;;21.93;9.40;;;7.60;99.90;;;;;;4975074;28;20640;-64
2022/11/15 06:45:59;;;;;;;8.97;6.70;;;7.70;99.90;;;;;;4974972;28;20466;-65
2022/11/15 06:48:25;;;;;;;7.60;6.60;;;7.70;99.90;;;;;;4974681;28;20526;-65
2022/11/15 06:50:52;;;;;;;6.73;6.10;;;7.70;99.90;;;;;;4974966;28;20499;-65
2022/11/15 06:53:17;;;;;;;8.80;5.80;;;7.70;99.90;;;;;;4975039;28;20235;-65
2022/11/15 06:55:43;;;;;;;10.63;6.10;;;7.70;99.90;;;;;;4974890;28;20415;-65
2022/11/15 06:58:09;;;;;;;7.80;6.27;;;7.70;99.90;;;;;;4974723;28;20196;-65
2022/11/15 07:00:34;;;;;;;9.60;6.80;;;7.80;99.90;;;;;;4974745;28;20200;-65
2022/11/15 07:03:00;;;;;;;12.40;8.80;;;7.80;99.90;;;;;;4974746;28;20180;-65
2022/11/15 07:05:27;;;;;;;10.00;5.90;;;7.90;99.90;;;;;;4974598;28;20203;-65
2022/11/15 07:07:54;;;;;;;8.00;6.80;;;8.00;99.90;;;;;;4974615;28;20448;-64
2022/11/15 07:10:24;;;;;;;9.53;7.50;;;8.10;99.90;;;;;;4974327;28;20943;-65
2022/11/15 07:12:50;;;;;;;7.70;5.70;;;8.10;99.90;;;;;;4974100;28;20975;-65
2022/11/15 07:15:17;;;;;;;13.10;6.93;;;8.20;99.90;;;;;;4974548;28;20416;-65
2022/11/15 07:17:43;;;;;;;7.40;5.80;;;8.30;99.90;;;;;;4974376;28;20541;-65
2022/11/15 07:20:09;;;;;;;11.67;6.67;;;8.50;99.90;;;;;;4974421;28;20506;-65
2022/11/15 07:22:35;;;;;;;6.63;5.67;;;8.60;99.90;;;;;;4967694;28;20260;-65
2022/11/15 07:25:00;;;;;;;8.53;6.17;;;8.60;99.90;;;;;;4954928;28;20906;-65
2022/11/15 07:27:26;;;;;;;8.40;5.80;;;8.70;99.90;;;;;;4954833;28;20200;-65
2022/11/15 07:29:51;;;;;;;8.33;6.10;;;8.80;99.90;;;;;;4954791;28;20665;-65
2022/11/15 07:32:17;;;;;;;6.17;5.67;;;9.00;99.90;;;;;;4969844;28;20169;-65
2022/11/15 07:34:43;;;;;;;8.60;5.67;;;9.10;99.90;;;;;;4958019;28;20177;-65
2022/11/15 07:37:08;;;;;;;6.23;5.63;;;9.30;99.90;;;;;;4965469;28;20192;-66
2022/11/15 07:39:34;;;;;;;6.97;6.27;;;9.90;99.90;;;;;;4949443;28;20184;-66
2022/11/15 07:44:44;;;;;;;6.27;5.67;;;12.40;99.90;;;;;;4966771;28;20280;-66
2022/11/15 07:47:09;;;;;;;7.57;5.30;;;13.70;99.90;;;;;;4973678;28;20518;-64
2022/11/15 07:49:35;;;;;;;9.77;6.50;;;14.00;99.90;;;;;;4969362;28;20553;-63
2022/11/15 07:52:00;;;;;;;6.80;5.63;;;13.90;99.90;;;;;;4972387;28;20176;-63
2022/11/15 07:54:26;;;;;;;11.37;7.60;;;13.60;99.90;;;;;;4971242;28;20638;-64
2022/11/15 07:56:51;;;;;;;7.33;5.60;;;13.50;99.90;;;;;;4971792;28;20672;-66
2022/11/15 07:59:17;;;;;;;10.37;5.90;;;13.40;99.90;;;;;;4969095;28;20187;-63
2022/11/15 08:01:42;;;;;;;7.10;5.80;;;13.30;99.90;;;;;;4963964;28;20184;-63
2022/11/15 08:04:10;;;;;;;6.30;5.23;;;13.30;99.90;;;;;;4973534;28;20558;-63
2022/11/15 08:06:36;;;;;;;10.63;5.60;;;12.80;99.90;;;;;;4973112;28;20179;-63
2022/11/15 08:09:02;;;;;;;7.93;5.90;;;12.40;99.90;;;;;;4969734;28;20447;-61
2022/11/15 08:11:27;;;;;;;5.00;4.50;;;12.40;99.90;;;;;;4973626;28;20205;-63
2022/11/15 08:13:53;;;;;;;8.13;5.87;;;12.20;99.90;;;;;;4972832;28;20235;-63
2022/11/15 08:16:18;;;;;;;4.07;3.70;;;12.10;99.90;;;;;;4972992;28;20187;-62
2022/11/15 08:18:44;;;;;;;4.70;4.30;;;12.40;99.90;;;;;;4969795;28;20275;-66
2022/11/15 08:21:11;;;;;;;5.87;5.30;;;13.00;99.90;;;;;;4973112;28;20180;-66
2022/11/15 08:23:36;;;;;;;6.60;5.10;;;13.40;99.90;;;;;;4973185;28;20243;-66
2022/11/15 08:26:04;;;;;;;6.60;4.73;;;14.00;99.90;;;;;;4972031;28;20475;-65
2022/11/15 08:28:30;;;;;;;8.63;7.63;;;14.90;99.90;;;;;;4967765;28;20251;-65
2022/11/15 08:30:56;;;;;;;4.83;4.30;;;15.00;99.90;;;;;;4973294;28;21059;-65
2022/11/15 08:33:21;;;;;;;4.27;3.47;;;14.90;99.90;;;;;;4972531;28;20463;-66
2022/11/15 08:35:48;;;;;;;5.20;3.53;;;14.80;99.90;;;;;;4973338;28;20204;-66
2022/11/15 08:38:13;;;;;;;6.23;4.90;;;15.00;99.90;;;;;;4977667;28;20231;-65
2022/11/15 08:40:39;;;;;;;4.57;4.20;;;15.40;99.90;;;;;;4968576;28;20879;-66
2022/11/15 08:43:05;;;;;;;4.10;3.70;;;16.00;99.90;;;;;;4975509;28;20219;-67
2022/11/15 08:45:30;;;;;;;5.20;4.67;;;17.50;99.90;;;;;;4971874;28;20212;-66
2022/11/15 08:47:56;;;;;;;5.50;5.00;;;18.90;99.90;;;;;;4972964;28;20195;-67
2022/11/15 08:50:22;;;;;;;4.40;4.00;;;20.50;99.90;;;;;;4967962;28;20677;-67
2022/11/15 08:52:50;;;;;;;5.87;4.80;;;21.70;96.80;;;;;;4972991;28;20255;-66
2022/11/15 08:55:16;;;;;;;6.00;5.50;;;21.80;94.80;;;;;;4973108;28;20642;-66
2022/11/15 08:57:41;;;;;;;3.93;3.53;;;21.90;93.40;;;;;;4964368;28;20524;-67
2022/11/15 09:00:07;;;;;;;5.23;3.63;;;22.70;92.00;;;;;;4966965;28;20181;-67
2022/11/15 09:02:33;;;;;;;7.00;6.27;;;22.40;89.70;;;;;;4972693;28;20579;-67
2022/11/15 09:04:58;;;;;;;4.00;3.70;;;22.00;88.80;;;;;;4972554;28;20509;-66
2022/11/15 09:07:24;;;;;;;6.93;3.80;;;21.30;90.20;;;;;;4972870;28;20192;-67
2022/11/15 09:09:49;;;;;;;4.10;3.07;;;21.70;90.80;;;;;;4968571;28;20263;-66
2022/11/15 09:12:15;;;;;;;4.50;3.20;;;22.00;88.70;;;;;;4972503;28;20196;-66
2022/11/15 09:14:41;;;;;;;3.53;3.00;;;21.90;87.80;;;;;;4972199;28;20169;-66
2022/11/15 09:17:10;;;;;;;3.70;3.40;;;21.30;88.90;;;;;;4961556;28;20682;-66
2022/11/15 09:19:36;;;;;;;6.10;3.80;;;20.60;90.80;;;;;;4962922;28;20259;-66
2022/11/15 09:22:04;;;;;;;5.33;4.20;;;19.30;93.20;;;;;;4972287;28;20427;-66
2022/11/15 09:24:30;;;;;;;6.07;4.27;;;18.00;96.50;;;;;;4972325;28;20462;-66
2022/11/15 09:26:55;;;;;;;6.27;5.77;;;17.50;99.90;;;;;;4972023;28;20466;-66
2022/11/15 09:29:21;;;;;;;4.80;4.40;;;18.50;99.80;;;;;;4968398;28;20180;-66
2022/11/15 09:31:46;;;;;;;6.00;3.77;;;19.10;98.30;;;;;;4972683;28;20176;-66
2022/11/15 09:34:12;;;;;;;6.40;3.47;;;20.70;95.30;;;;;;4971925;28;20188;-66
2022/11/15 09:36:38;;;;;;;3.83;3.43;;;21.10;91.30;;;;;;4974108;28;20176;-66
2022/11/15 09:39:03;;;;;;;3.27;3.07;;;21.10;91.70;;;;;;4972132;28;20208;-66
2022/11/15 09:42:01;;;;;;;6.17;3.43;;;22.40;88.40;;;;;;4975816;28;20176;-66
2022/11/15 09:44:42;;;;;;;4.03;3.63;;;22.30;84.90;;;;;;4974764;28;20199;-66
2022/11/15 09:47:34;;;;;;;3.50;2.87;;;22.40;82.60;;;;;;4984440;28;20486;-66
2022/11/15 09:50:08;;;;;;;3.33;2.90;;;23.20;80.60;;;;;;4972418;28;20415;-66
2022/11/15 09:52:36;;;;;;;3.30;3.00;;;23.80;77.70;;;;;;4975398;28;20945;-65
2022/11/15 09:55:02;;;;;;;4.33;3.10;;;21.80;79.20;;;;;;4976112;28;20423;-65
2022/11/15 09:57:44;;;;;;;3.33;3.03;;;20.00;87.60;;;;;;4972133;28;20451;-66
2022/11/15 10:00:29;;;;;;;4.23;2.80;;;19.10;92.00;;;;;;4972029;28;20188;-66
2022/11/15 10:03:04;;;;;;;5.00;3.37;;;18.50;95.50;;;;;;4975730;28;20423;-66
2022/11/15 10:05:31;;;;;;;7.67;2.90;;;18.00;96.20;;;;;;4964196;28;21055;-66
2022/11/15 10:08:16;;;;;;;3.33;3.00;;;17.30;99.80;;;;;;4956411;28;20536;-65
2022/11/15 10:10:52;;;;;;;3.00;2.80;;;16.90;99.90;;;;;;4973865;28;20470;-65
2022/11/15 10:13:25;;;;;;;7.73;4.10;;;16.70;99.90;;;;;;4975670;28;20431;-66
2022/11/15 10:15:54;;;;;;;4.43;2.97;;;16.40;99.90;;;;;;4975217;28;21638;-64
2022/11/15 10:18:34;;;;;;;3.40;3.10;;;16.10;99.90;;;;;;4971993;28;20459;-64
2022/11/15 10:21:16;;;;;;;4.87;2.80;;;15.90;99.90;;;;;;4974933;28;20433;-65
2022/11/15 10:23:42;;;;;;;5.20;3.93;;;15.80;99.90;;;;;;4974475;28;20469;-66
2022/11/15 10:26:11;;;;;;;5.17;3.70;;;15.70;99.90;;;;;;4975431;28;20491;-65
2022/11/15 10:28:36;;;;;;;4.80;4.30;;;15.90;99.90;;;;;;4971609;28;20219;-65
2022/11/15 10:31:02;;;;;;;5.10;3.07;;;15.90;99.90;;;;;;4961208;28;20466;-65
2022/11/15 10:33:34;;;;;;;3.00;2.80;;;15.90;99.90;;;;;;4975278;28;20541;-65
2022/11/15 10:36:08;;;;;;;2.97;2.03;;;15.80;99.90;;;;;;4974375;28;20466;-65
2022/11/15 10:38:49;;;;;;;3.03;2.33;;;15.60;99.90;;;;;;4970698;28;20451;-66
2022/11/15 10:41:21;;;;;;;2.30;2.10;;;15.50;99.90;;;;;;4974116;28;20467;-66
2022/11/15 10:44:08;;;;;;;2.70;2.50;;;15.40;99.90;;;;;;4975025;28;20427;-65
2022/11/15 10:46:35;;;;;;;3.27;2.40;;;15.40;99.90;;;;;;4974020;28;20431;-65
2022/11/15 10:49:19;;;;;;;4.43;3.00;;;15.30;99.90;;;;;;4970446;28;20432;-65
2022/11/15 10:51:56;;;;;;;6.50;3.20;;;15.20;99.90;;;;;;4973492;28;20451;-65
2022/11/15 10:54:30;;;;;;;3.70;3.27;;;15.20;99.90;;;;;;4974701;28;20494;-65
2022/11/15 10:56:58;;;;;;;10.83;4.80;;;15.10;99.90;;;;;;4974740;28;20406;-65
2022/11/15 10:59:30;;;;;;;3.40;3.10;;;15.20;99.90;;;;;;4971121;28;20419;-64
2022/11/15 11:01:56;;;;;;;5.83;2.87;;;15.00;99.90;;;;;;4974781;28;20470;-65
2022/11/15 11:04:21;;;;;;;2.47;2.27;;;14.90;99.90;;;;;;4974795;28;20491;-65
2022/11/15 11:06:51;;;;;;;7.47;3.20;;;14.70;99.90;;;;;;4974601;28;20204;-64
2022/11/15 11:09:22;;;;;;;4.17;3.50;;;14.70;99.90;;;;;;4970301;28;20259;-64
2022/11/15 11:11:50;;;;;;;5.30;4.17;;;14.60;99.90;;;;;;4974125;28;20410;-66
2022/11/15 11:14:37;;;;;;;5.93;3.70;;;14.60;99.90;;;;;;4969136;28;20435;-65
2022/11/15 11:17:11;;;;;;;5.50;3.10;;;14.70;99.90;;;;;;4973729;28;20428;-65
2022/11/15 11:19:40;;;;;;;9.90;3.90;;;14.60;99.90;;;;;;4973989;28;20466;-66
2022/11/15 11:22:33;;;;;;;4.93;3.20;;;14.60;99.90;;;;;;4974347;28;20457;-65
2022/11/15 11:25:34;;;;;;;7.37;3.43;;;14.70;99.90;;;;;;4973487;28;20494;-64
2022/11/15 11:28:33;;;;;;;3.13;2.70;;;14.70;99.90;;;;;;4962386;28;20583;-66
2022/11/15 11:31:04;;;;;;;7.80;5.00;;;14.80;99.90;;;;;;4962511;28;20431;-65
2022/11/15 11:33:48;;;;;;;8.93;2.97;;;14.90;99.90;;;;;;4972424;28;21048;-66
2022/11/15 11:36:41;;;;;;;3.90;3.37;;;14.90;99.90;;;;;;4972492;28;20435;-65
2022/11/15 11:39:19;;;;;;;5.63;3.47;;;15.00;99.90;;;;;;4975037;28;20463;-64
2022/11/15 11:41:59;;;;;;;4.07;2.63;;;15.00;99.90;;;;;;4974054;28;20423;-65
2022/11/15 11:44:45;;;;;;;3.90;2.47;;;15.10;99.90;;;;;;4972910;28;20538;-66
2022/11/15 11:47:21;;;;;;;4.00;3.00;;;15.40;99.90;;;;;;4973886;28;20434;-64
2022/11/15 11:49:56;;;;;;;5.77;3.77;;;15.60;99.90;;;;;;4969493;28;20781;-66
2022/11/15 11:52:32;;;;;;;5.60;3.73;;;15.70;99.90;;;;;;4973818;28;20502;-65
2022/11/15 11:55:20;;;;;;;5.40;4.03;;;15.80;99.90;;;;;;4973335;28;20850;-64
2022/11/15 11:58:01;;;;;;;5.23;3.67;;;15.90;99.90;;;;;;4973226;28;20461;-64
2022/11/15 12:00:33;;;;;;;4.67;2.83;;;16.00;99.90;;;;;;4970675;28;20421;-65
2022/11/15 12:03:25;;;;;;;4.50;3.27;;;16.00;99.90;;;;;;4973020;28;20459;-66
2022/11/15 12:05:57;;;;;;;3.40;3.00;;;16.10;99.90;;;;;;4973589;28;20467;-65
2022/11/15 12:08:55;;;;;;;5.40;2.70;;;16.40;99.90;;;;;;4969917;28;21975;-65
2022/11/15 12:11:28;;;;;;;5.00;3.10;;;16.30;99.90;;;;;;4973230;28;20486;-64
2022/11/15 12:14:03;;;;;;;5.20;3.90;;;16.20;99.90;;;;;;4973074;28;20454;-67
2022/11/15 12:16:31;;;;;;;3.30;2.50;;;16.10;99.90;;;;;;4980860;28;20464;-65
2022/11/15 12:19:01;;;;;;;5.20;2.70;;;16.00;99.90;;;;;;4958455;28;20812;-65
2022/11/15 12:21:43;;;;;;;6.30;2.80;;;15.70;99.90;;;;;;4972414;28;20448;-65
2022/11/15 12:24:20;;;;;;;2.30;2.10;;;15.40;99.90;;;;;;4972715;28;20782;-65
2022/11/15 12:26:55;;;;;;;2.30;2.10;;;15.30;99.90;;;;;;4972956;28;20424;-64
2022/11/15 12:29:30;;;;;;;7.03;4.90;;;15.10;99.90;;;;;;4969656;28;20822;-65
2022/11/15 12:31:59;;;;;;;4.37;3.43;;;14.90;99.90;;;;;;4973444;28;20415;-64
2022/11/15 12:34:27;;;;;;;2.97;2.30;;;14.90;99.90;;;;;;4963788;28;20510;-65
2022/11/15 12:36:53;;;;;;;2.33;2.10;;;14.80;99.90;;;;;;4973108;28;20522;-65
2022/11/15 12:39:20;;;;;;;5.73;2.40;;;14.80;99.90;;;;;;4961953;28;20504;-65
2022/11/15 12:42:11;;;;;;;3.80;2.23;;;14.70;99.90;;;;;;4973232;28;20473;-65
2022/11/15 12:44:38;;;;;;;3.57;2.23;;;14.70;99.90;;;;;;4972719;28;20466;-64
2022/11/15 12:47:23;;;;;;;1.90;1.80;;;14.60;99.90;;;;;;4971876;28;20811;-64
2022/11/15 12:49:49;;;;;;;2.90;2.60;;;14.60;99.90;;;;;;4968329;28;20478;-65
2022/11/15 12:52:16;;;;;;;2.83;2.50;;;14.60;99.90;;;;;;4971389;28;20423;-65
2022/11/15 12:54:41;;;;;;;2.30;2.10;;;14.60;99.90;;;;;;4971434;28;20582;-65
2022/11/15 12:57:06;;;;;;;2.57;2.37;;;14.70;99.90;;;;;;4966621;28;21020;-65
2022/11/15 13:00:01;;;;;;;3.10;2.80;;;14.60;99.90;;;;;;4966061;28;20180;-65
2022/11/15 13:02:37;;;;;;;3.90;2.70;;;14.60;99.90;;;;;;4956887;28;20208;-64
2022/11/15 13:05:35;;;;;;;2.80;2.30;;;14.60;99.90;;;;;;4956552;28;20470;-63
2022/11/15 13:08:01;;;;;;;2.87;2.67;;;14.70;99.90;;;;;;4946659;28;20483;-63
2022/11/15 13:10:27;;;;;;;4.07;3.70;;;14.80;99.90;;;;;;4970008;28;20921;-64
2022/11/15 13:12:58;;;;;;;6.43;4.30;;;14.90;99.90;;;;;;4975871;28;20200;-64
2022/11/15 13:15:52;;;;;;;7.03;5.03;;;14.90;99.90;;;;;;4957387;28;20412;-64
2022/11/15 13:18:39;;;;;;;11.00;5.03;;;14.80;99.90;;;;;;4962476;28;20450;-63
2022/11/15 13:24:03;;;;;;;6.13;5.23;;;14.80;99.90;;;;;;4975565;28;20450;-64
2022/11/15 13:26:30;;;;;;;7.00;5.10;;;14.70;99.90;;;;;;4976503;28;20428;-64
2022/11/15 13:28:56;;;;;;;4.80;3.80;;;14.70;99.90;;;;;;4972498;28;20490;-63
2022/11/15 13:31:27;;;;;;;5.50;3.30;;;14.40;99.90;;;;;;4964853;28;20460;-64